sensor_id;sensor_type;location;lat;lon;timestamp;P1;durP1;ratioP1;P2;durP2;ratioP2
77117;SDS011;66072;50.238;19.228;2023-04-03T00:01:10;6.80;;;4.50;;
77117;SDS011;66072;50.238;19.228;2023-04-03T00:03:38;7.90;;;5.40;;
77117;SDS011;66072;50.238;19.228;2023-04-03T00:06:06;6.90;;;4.50;;
77117;SDS011;66072;50.238;19.228;2023-04-03T00:08:33;5.70;;;3.90;;
77117;SDS011;66072;50.238;19.228;2023-04-03T00:11:02;8.90;;;5.00;;
77117;SDS011;66072;50.238;19.228;2023-04-03T00:13:31;8.60;;;4.20;;
77117;SDS011;66072;50.238;19.228;2023-04-03T00:16:00;8.60;;;6.20;;
77117;SDS011;66072;50.238;19.228;2023-04-03T00:18:27;9.80;;;5.60;;
77117;SDS011;66072;50.238;19.228;2023-04-03T00:20:55;7.80;;;4.60;;
77117;SDS011;66072;50.238;19.228;2023-04-03T00:23:23;7.40;;;4.80;;
77117;SDS011;66072;50.238;19.228;2023-04-03T00:25:51;7.60;;;4.80;;
77117;SDS011;66072;50.238;19.228;2023-04-03T00:28:19;9.00;;;5.50;;
77117;SDS011;66072;50.238;19.228;2023-04-03T00:30:50;10.70;;;6.70;;
77117;SDS011;66072;50.238;19.228;2023-04-03T00:33:18;9.40;;;6.40;;
77117;SDS011;66072;50.238;19.228;2023-04-03T00:35:46;12.10;;;6.80;;
77117;SDS011;66072;50.238;19.228;2023-04-03T00:38:15;12.40;;;6.70;;
77117;SDS011;66072;50.238;19.228;2023-04-03T00:40:44;9.70;;;5.90;;
77117;SDS011;66072;50.238;19.228;2023-04-03T00:43:23;8.00;;;3.90;;
77117;SDS011;66072;50.238;19.228;2023-04-03T00:45:53;9.20;;;4.70;;
77117;SDS011;66072;50.238;19.228;2023-04-03T00:48:24;8.70;;;5.20;;
77117;SDS011;66072;50.238;19.228;2023-04-03T00:50:56;6.80;;;3.30;;
77117;SDS011;66072;50.238;19.228;2023-04-03T00:53:26;5.20;;;3.40;;
77117;SDS011;66072;50.238;19.228;2023-04-03T00:55:57;3.40;;;2.20;;
77117;SDS011;66072;50.238;19.228;2023-04-03T00:58:29;3.10;;;2.00;;
77117;SDS011;66072;50.238;19.228;2023-04-03T01:01:05;4.90;;;3.90;;
77117;SDS011;66072;50.238;19.228;2023-04-03T01:03:35;4.40;;;2.90;;
77117;SDS011;66072;50.238;19.228;2023-04-03T01:06:03;5.80;;;3.80;;
77117;SDS011;66072;50.238;19.228;2023-04-03T01:08:31;4.60;;;3.40;;
77117;SDS011;66072;50.238;19.228;2023-04-03T01:10:59;5.00;;;3.30;;
77117;SDS011;66072;50.238;19.228;2023-04-03T01:13:28;4.00;;;2.90;;
77117;SDS011;66072;50.238;19.228;2023-04-03T01:16:00;5.30;;;3.50;;
77117;SDS011;66072;50.238;19.228;2023-04-03T01:18:29;5.60;;;4.10;;
77117;SDS011;66072;50.238;19.228;2023-04-03T01:26:42;6.60;;;4.40;;
77117;SDS011;66072;50.238;19.228;2023-04-03T01:29:10;6.70;;;4.70;;
77117;SDS011;66072;50.238;19.228;2023-04-03T01:34:23;8.10;;;4.40;;
77117;SDS011;66072;50.238;19.228;2023-04-03T01:36:51;8.30;;;5.30;;
77117;SDS011;66072;50.238;19.228;2023-04-03T01:39:19;8.80;;;5.70;;
77117;SDS011;66072;50.238;19.228;2023-04-03T01:41:47;7.70;;;4.90;;
77117;SDS011;66072;50.238;19.228;2023-04-03T01:44:15;8.20;;;4.40;;
77117;SDS011;66072;50.238;19.228;2023-04-03T01:46:42;8.70;;;4.50;;
77117;SDS011;66072;50.238;19.228;2023-04-03T01:49:10;8.00;;;5.10;;
77117;SDS011;66072;50.238;19.228;2023-04-03T01:51:38;6.90;;;4.20;;
77117;SDS011;66072;50.238;19.228;2023-04-03T01:54:05;6.80;;;4.60;;
77117;SDS011;66072;50.238;19.228;2023-04-03T01:56:33;8.50;;;4.60;;
77117;SDS011;66072;50.238;19.228;2023-04-03T01:59:00;6.70;;;4.70;;
77117;SDS011;66072;50.238;19.228;2023-04-03T02:01:28;7.30;;;5.00;;
77117;SDS011;66072;50.238;19.228;2023-04-03T02:03:56;7.70;;;5.30;;
77117;SDS011;66072;50.238;19.228;2023-04-03T02:06:23;9.70;;;6.60;;
77117;SDS011;66072;50.238;19.228;2023-04-03T02:08:51;7.70;;;5.00;;
77117;SDS011;66072;50.238;19.228;2023-04-03T02:11:18;7.40;;;4.50;;
77117;SDS011;66072;50.238;19.228;2023-04-03T02:13:46;8.90;;;6.40;;
77117;SDS011;66072;50.238;19.228;2023-04-03T02:16:13;9.90;;;5.80;;
77117;SDS011;66072;50.238;19.228;2023-04-03T02:18:41;9.40;;;5.40;;
77117;SDS011;66072;50.238;19.228;2023-04-03T02:21:09;8.50;;;4.90;;
77117;SDS011;66072;50.238;19.228;2023-04-03T02:23:36;9.40;;;6.60;;
77117;SDS011;66072;50.238;19.228;2023-04-03T02:26:05;9.30;;;6.10;;
77117;SDS011;66072;50.238;19.228;2023-04-03T02:28:37;7.60;;;5.20;;
77117;SDS011;66072;50.238;19.228;2023-04-03T02:31:05;8.90;;;5.40;;
77117;SDS011;66072;50.238;19.228;2023-04-03T02:33:33;6.40;;;4.90;;
77117;SDS011;66072;50.238;19.228;2023-04-03T02:36:03;5.70;;;3.60;;
77117;SDS011;66072;50.238;19.228;2023-04-03T02:38:32;10.50;;;6.00;;
77117;SDS011;66072;50.238;19.228;2023-04-03T02:41:00;8.30;;;5.00;;
77117;SDS011;66072;50.238;19.228;2023-04-03T02:43:29;6.40;;;4.70;;
77117;SDS011;66072;50.238;19.228;2023-04-03T02:45:57;6.20;;;4.50;;
77117;SDS011;66072;50.238;19.228;2023-04-03T02:48:24;7.40;;;4.60;;
77117;SDS011;66072;50.238;19.228;2023-04-03T02:50:52;7.40;;;4.60;;
77117;SDS011;66072;50.238;19.228;2023-04-03T02:53:20;3.90;;;2.40;;
77117;SDS011;66072;50.238;19.228;2023-04-03T02:55:48;6.20;;;4.60;;
77117;SDS011;66072;50.238;19.228;2023-04-03T02:58:15;7.00;;;4.70;;
77117;SDS011;66072;50.238;19.228;2023-04-03T03:00:43;9.40;;;5.20;;
77117;SDS011;66072;50.238;19.228;2023-04-03T03:03:11;8.50;;;4.50;;
77117;SDS011;66072;50.238;19.228;2023-04-03T03:05:38;6.90;;;4.70;;
77117;SDS011;66072;50.238;19.228;2023-04-03T03:08:06;6.50;;;4.40;;
77117;SDS011;66072;50.238;19.228;2023-04-03T03:10:33;6.30;;;4.60;;
77117;SDS011;66072;50.238;19.228;2023-04-03T03:13:01;6.20;;;4.10;;
77117;SDS011;66072;50.238;19.228;2023-04-03T03:15:29;5.50;;;3.70;;
77117;SDS011;66072;50.238;19.228;2023-04-03T03:17:57;5.20;;;3.50;;
77117;SDS011;66072;50.238;19.228;2023-04-03T03:20:25;6.60;;;4.00;;
77117;SDS011;66072;50.238;19.228;2023-04-03T03:22:52;5.70;;;3.60;;
77117;SDS011;66072;50.238;19.228;2023-04-03T03:25:20;7.40;;;5.10;;
77117;SDS011;66072;50.238;19.228;2023-04-03T03:27:47;8.90;;;5.10;;
77117;SDS011;66072;50.238;19.228;2023-04-03T03:30:15;7.50;;;4.70;;
77117;SDS011;66072;50.238;19.228;2023-04-03T03:32:42;7.00;;;4.30;;
77117;SDS011;66072;50.238;19.228;2023-04-03T03:35:10;6.90;;;4.90;;
77117;SDS011;66072;50.238;19.228;2023-04-03T03:37:38;7.80;;;5.00;;
77117;SDS011;66072;50.238;19.228;2023-04-03T03:40:05;6.20;;;4.50;;
77117;SDS011;66072;50.238;19.228;2023-04-03T03:42:33;8.20;;;4.70;;
77117;SDS011;66072;50.238;19.228;2023-04-03T03:45:01;10.90;;;5.00;;
77117;SDS011;66072;50.238;19.228;2023-04-03T03:47:29;6.20;;;4.80;;
77117;SDS011;66072;50.238;19.228;2023-04-03T03:49:56;7.00;;;4.60;;
77117;SDS011;66072;50.238;19.228;2023-04-03T03:52:24;7.20;;;4.90;;
77117;SDS011;66072;50.238;19.228;2023-04-03T03:54:52;8.40;;;5.00;;
77117;SDS011;66072;50.238;19.228;2023-04-03T03:57:20;7.20;;;5.30;;
77117;SDS011;66072;50.238;19.228;2023-04-03T03:59:47;6.90;;;4.80;;
77117;SDS011;66072;50.238;19.228;2023-04-03T04:02:15;6.90;;;4.50;;
77117;SDS011;66072;50.238;19.228;2023-04-03T04:04:43;9.30;;;5.90;;
77117;SDS011;66072;50.238;19.228;2023-04-03T04:07:10;7.40;;;5.40;;
77117;SDS011;66072;50.238;19.228;2023-04-03T04:09:38;6.50;;;4.10;;
77117;SDS011;66072;50.238;19.228;2023-04-03T04:12:05;7.80;;;5.80;;
77117;SDS011;66072;50.238;19.228;2023-04-03T04:14:33;7.30;;;5.30;;
77117;SDS011;66072;50.238;19.228;2023-04-03T04:17:00;7.50;;;5.30;;
77117;SDS011;66072;50.238;19.228;2023-04-03T04:19:28;6.50;;;4.40;;
77117;SDS011;66072;50.238;19.228;2023-04-03T04:21:56;8.80;;;4.30;;
77117;SDS011;66072;50.238;19.228;2023-04-03T04:24:23;6.30;;;4.20;;
77117;SDS011;66072;50.238;19.228;2023-04-03T04:26:51;9.70;;;4.50;;
77117;SDS011;66072;50.238;19.228;2023-04-03T04:29:19;6.70;;;4.00;;
77117;SDS011;66072;50.238;19.228;2023-04-03T04:31:46;7.80;;;3.60;;
77117;SDS011;66072;50.238;19.228;2023-04-03T04:34:14;7.20;;;4.20;;
77117;SDS011;66072;50.238;19.228;2023-04-03T04:36:42;5.90;;;4.20;;
77117;SDS011;66072;50.238;19.228;2023-04-03T04:39:09;6.50;;;3.00;;
77117;SDS011;66072;50.238;19.228;2023-04-03T04:41:37;6.20;;;3.90;;
77117;SDS011;66072;50.238;19.228;2023-04-03T04:44:05;5.60;;;3.70;;
77117;SDS011;66072;50.238;19.228;2023-04-03T04:46:32;6.50;;;3.50;;
77117;SDS011;66072;50.238;19.228;2023-04-03T04:49:00;5.90;;;3.30;;
77117;SDS011;66072;50.238;19.228;2023-04-03T04:51:28;7.30;;;3.90;;
77117;SDS011;66072;50.238;19.228;2023-04-03T04:54:04;5.30;;;2.70;;
77117;SDS011;66072;50.238;19.228;2023-04-03T04:56:32;4.20;;;2.80;;
77117;SDS011;66072;50.238;19.228;2023-04-03T04:58:59;5.30;;;3.10;;
77117;SDS011;66072;50.238;19.228;2023-04-03T05:01:27;4.70;;;2.80;;
77117;SDS011;66072;50.238;19.228;2023-04-03T05:03:54;5.20;;;3.70;;
77117;SDS011;66072;50.238;19.228;2023-04-03T05:06:22;4.40;;;2.70;;
77117;SDS011;66072;50.238;19.228;2023-04-03T05:08:50;4.60;;;3.00;;
77117;SDS011;66072;50.238;19.228;2023-04-03T05:11:17;6.40;;;3.30;;
77117;SDS011;66072;50.238;19.228;2023-04-03T05:13:45;7.60;;;3.50;;
77117;SDS011;66072;50.238;19.228;2023-04-03T05:16:12;5.50;;;2.90;;
77117;SDS011;66072;50.238;19.228;2023-04-03T05:18:40;6.80;;;3.80;;
77117;SDS011;66072;50.238;19.228;2023-04-03T05:21:08;6.70;;;3.60;;
77117;SDS011;66072;50.238;19.228;2023-04-03T05:23:35;5.40;;;3.00;;
77117;SDS011;66072;50.238;19.228;2023-04-03T05:26:03;5.60;;;3.40;;
77117;SDS011;66072;50.238;19.228;2023-04-03T05:28:31;5.20;;;3.60;;
77117;SDS011;66072;50.238;19.228;2023-04-03T05:30:59;5.60;;;2.90;;
77117;SDS011;66072;50.238;19.228;2023-04-03T05:33:26;3.70;;;2.40;;
77117;SDS011;66072;50.238;19.228;2023-04-03T05:35:54;6.80;;;3.70;;
77117;SDS011;66072;50.238;19.228;2023-04-03T05:38:22;6.20;;;2.90;;
77117;SDS011;66072;50.238;19.228;2023-04-03T05:40:50;4.60;;;2.30;;
77117;SDS011;66072;50.238;19.228;2023-04-03T05:43:17;4.80;;;2.40;;
77117;SDS011;66072;50.238;19.228;2023-04-03T05:45:46;4.10;;;2.70;;
77117;SDS011;66072;50.238;19.228;2023-04-03T05:48:14;3.30;;;2.30;;
77117;SDS011;66072;50.238;19.228;2023-04-03T05:50:42;5.40;;;2.50;;
77117;SDS011;66072;50.238;19.228;2023-04-03T05:53:15;5.40;;;2.70;;
77117;SDS011;66072;50.238;19.228;2023-04-03T05:55:47;5.40;;;2.70;;
77117;SDS011;66072;50.238;19.228;2023-04-03T05:58:15;4.80;;;2.70;;
77117;SDS011;66072;50.238;19.228;2023-04-03T06:00:43;4.30;;;2.80;;
77117;SDS011;66072;50.238;19.228;2023-04-03T06:03:11;7.20;;;3.60;;
77117;SDS011;66072;50.238;19.228;2023-04-03T06:05:39;6.60;;;3.00;;
77117;SDS011;66072;50.238;19.228;2023-04-03T06:08:07;4.60;;;3.00;;
77117;SDS011;66072;50.238;19.228;2023-04-03T06:10:35;5.90;;;3.30;;
77117;SDS011;66072;50.238;19.228;2023-04-03T06:13:03;6.00;;;2.80;;
77117;SDS011;66072;50.238;19.228;2023-04-03T06:15:31;5.40;;;2.90;;
77117;SDS011;66072;50.238;19.228;2023-04-03T06:17:59;5.50;;;3.30;;
77117;SDS011;66072;50.238;19.228;2023-04-03T06:20:27;6.70;;;3.50;;
77117;SDS011;66072;50.238;19.228;2023-04-03T06:22:55;6.00;;;3.00;;
77117;SDS011;66072;50.238;19.228;2023-04-03T06:25:22;6.40;;;3.30;;
77117;SDS011;66072;50.238;19.228;2023-04-03T06:27:50;5.80;;;2.70;;
77117;SDS011;66072;50.238;19.228;2023-04-03T06:30:18;8.10;;;3.70;;
77117;SDS011;66072;50.238;19.228;2023-04-03T06:32:45;5.60;;;3.60;;
77117;SDS011;66072;50.238;19.228;2023-04-03T06:35:13;8.00;;;4.20;;
77117;SDS011;66072;50.238;19.228;2023-04-03T06:37:40;5.70;;;3.50;;
77117;SDS011;66072;50.238;19.228;2023-04-03T06:40:12;5.20;;;2.80;;
77117;SDS011;66072;50.238;19.228;2023-04-03T06:42:45;12.40;;;2.90;;
77117;SDS011;66072;50.238;19.228;2023-04-03T06:45:13;5.50;;;2.70;;
77117;SDS011;66072;50.238;19.228;2023-04-03T06:47:41;7.50;;;3.40;;
77117;SDS011;66072;50.238;19.228;2023-04-03T06:50:09;5.70;;;3.00;;
77117;SDS011;66072;50.238;19.228;2023-04-03T06:52:37;4.50;;;2.20;;
77117;SDS011;66072;50.238;19.228;2023-04-03T06:55:05;4.60;;;2.60;;
77117;SDS011;66072;50.238;19.228;2023-04-03T06:57:33;5.00;;;2.10;;
77117;SDS011;66072;50.238;19.228;2023-04-03T07:00:01;4.90;;;2.80;;
77117;SDS011;66072;50.238;19.228;2023-04-03T07:02:30;4.20;;;2.40;;
77117;SDS011;66072;50.238;19.228;2023-04-03T07:04:58;6.30;;;3.10;;
77117;SDS011;66072;50.238;19.228;2023-04-03T07:07:26;6.10;;;2.30;;
77117;SDS011;66072;50.238;19.228;2023-04-03T07:09:53;6.70;;;2.80;;
77117;SDS011;66072;50.238;19.228;2023-04-03T07:12:21;5.60;;;2.30;;
77117;SDS011;66072;50.238;19.228;2023-04-03T07:14:48;5.20;;;2.50;;
77117;SDS011;66072;50.238;19.228;2023-04-03T07:17:16;5.50;;;2.40;;
77117;SDS011;66072;50.238;19.228;2023-04-03T07:19:44;6.30;;;3.10;;
77117;SDS011;66072;50.238;19.228;2023-04-03T07:22:11;5.20;;;3.10;;
77117;SDS011;66072;50.238;19.228;2023-04-03T07:24:39;4.20;;;2.50;;
77117;SDS011;66072;50.238;19.228;2023-04-03T07:27:06;6.90;;;2.70;;
77117;SDS011;66072;50.238;19.228;2023-04-03T07:29:34;4.60;;;2.30;;
77117;SDS011;66072;50.238;19.228;2023-04-03T07:32:02;5.00;;;2.70;;
77117;SDS011;66072;50.238;19.228;2023-04-03T07:34:31;4.20;;;2.40;;
77117;SDS011;66072;50.238;19.228;2023-04-03T07:36:59;4.60;;;2.10;;
77117;SDS011;66072;50.238;19.228;2023-04-03T07:39:26;5.70;;;2.30;;
77117;SDS011;66072;50.238;19.228;2023-04-03T07:41:54;6.40;;;2.30;;
77117;SDS011;66072;50.238;19.228;2023-04-03T07:44:22;7.40;;;2.70;;
77117;SDS011;66072;50.238;19.228;2023-04-03T07:46:49;5.50;;;2.80;;
77117;SDS011;66072;50.238;19.228;2023-04-03T07:49:17;6.10;;;2.40;;
77117;SDS011;66072;50.238;19.228;2023-04-03T07:51:45;6.00;;;3.00;;
77117;SDS011;66072;50.238;19.228;2023-04-03T07:54:12;5.90;;;3.50;;
77117;SDS011;66072;50.238;19.228;2023-04-03T07:56:40;6.20;;;2.90;;
77117;SDS011;66072;50.238;19.228;2023-04-03T07:59:09;4.80;;;2.60;;
77117;SDS011;66072;50.238;19.228;2023-04-03T08:01:37;3.80;;;2.00;;
77117;SDS011;66072;50.238;19.228;2023-04-03T08:04:05;4.20;;;2.50;;
77117;SDS011;66072;50.238;19.228;2023-04-03T08:06:33;9.10;;;3.50;;
77117;SDS011;66072;50.238;19.228;2023-04-03T08:09:13;7.70;;;3.00;;
77117;SDS011;66072;50.238;19.228;2023-04-03T08:11:42;7.60;;;3.00;;
77117;SDS011;66072;50.238;19.228;2023-04-03T08:14:10;5.20;;;3.10;;
77117;SDS011;66072;50.238;19.228;2023-04-03T08:16:38;5.90;;;2.50;;
77117;SDS011;66072;50.238;19.228;2023-04-03T08:19:06;6.40;;;2.80;;
77117;SDS011;66072;50.238;19.228;2023-04-03T08:21:41;6.40;;;2.60;;
77117;SDS011;66072;50.238;19.228;2023-04-03T08:24:09;7.80;;;3.00;;
77117;SDS011;66072;50.238;19.228;2023-04-03T08:26:37;5.40;;;2.50;;
77117;SDS011;66072;50.238;19.228;2023-04-03T08:29:05;5.40;;;2.40;;
77117;SDS011;66072;50.238;19.228;2023-04-03T08:31:32;5.00;;;2.10;;
77117;SDS011;66072;50.238;19.228;2023-04-03T08:34:00;4.20;;;2.20;;
77117;SDS011;66072;50.238;19.228;2023-04-03T08:36:28;4.30;;;2.40;;
77117;SDS011;66072;50.238;19.228;2023-04-03T08:38:56;5.50;;;2.10;;
77117;SDS011;66072;50.238;19.228;2023-04-03T08:49:30;3.90;;;2.20;;
77117;SDS011;66072;50.238;19.228;2023-04-03T08:52:03;3.50;;;1.60;;
77117;SDS011;66072;50.238;19.228;2023-04-03T08:54:37;5.70;;;2.30;;
77117;SDS011;66072;50.238;19.228;2023-04-03T09:00:40;3.80;;;1.90;;
77117;SDS011;66072;50.238;19.228;2023-04-03T09:03:18;6.00;;;2.20;;
77117;SDS011;66072;50.238;19.228;2023-04-03T09:05:55;4.50;;;2.00;;
77117;SDS011;66072;50.238;19.228;2023-04-03T09:08:29;3.90;;;1.90;;
77117;SDS011;66072;50.238;19.228;2023-04-03T09:11:12;5.80;;;2.60;;
77117;SDS011;66072;50.238;19.228;2023-04-03T09:19:15;3.90;;;2.40;;
77117;SDS011;66072;50.238;19.228;2023-04-03T09:21:56;4.20;;;2.30;;
77117;SDS011;66072;50.238;19.228;2023-04-03T09:24:24;3.90;;;2.20;;
77117;SDS011;66072;50.238;19.228;2023-04-03T09:29:28;4.60;;;2.30;;
77117;SDS011;66072;50.238;19.228;2023-04-03T09:31:56;4.50;;;2.60;;
77117;SDS011;66072;50.238;19.228;2023-04-03T09:34:30;8.80;;;2.30;;
77117;SDS011;66072;50.238;19.228;2023-04-03T09:37:03;4.10;;;1.80;;
77117;SDS011;66072;50.238;19.228;2023-04-03T09:39:32;4.70;;;2.30;;
77117;SDS011;66072;50.238;19.228;2023-04-03T09:42:19;4.90;;;2.50;;
77117;SDS011;66072;50.238;19.228;2023-04-03T09:44:55;5.80;;;3.30;;
77117;SDS011;66072;50.238;19.228;2023-04-03T09:52:50;8.80;;;5.30;;
77117;SDS011;66072;50.238;19.228;2023-04-03T09:55:20;8.10;;;5.00;;
77117;SDS011;66072;50.238;19.228;2023-04-03T09:57:49;6.80;;;3.40;;
77117;SDS011;66072;50.238;19.228;2023-04-03T10:00:30;5.60;;;3.10;;
77117;SDS011;66072;50.238;19.228;2023-04-03T10:03:08;5.40;;;2.50;;
77117;SDS011;66072;50.238;19.228;2023-04-03T10:05:51;5.20;;;2.50;;
77117;SDS011;66072;50.238;19.228;2023-04-03T10:08:22;6.10;;;3.10;;
77117;SDS011;66072;50.238;19.228;2023-04-03T10:11:14;3.80;;;2.20;;
77117;SDS011;66072;50.238;19.228;2023-04-03T10:13:57;6.00;;;2.70;;
77117;SDS011;66072;50.238;19.228;2023-04-03T10:21:40;4.90;;;2.10;;
77117;SDS011;66072;50.238;19.228;2023-04-03T10:24:21;3.80;;;1.60;;
77117;SDS011;66072;50.238;19.228;2023-04-03T10:27:00;4.60;;;2.20;;
77117;SDS011;66072;50.238;19.228;2023-04-03T10:29:42;4.30;;;2.00;;
77117;SDS011;66072;50.238;19.228;2023-04-03T10:32:42;3.20;;;1.90;;
77117;SDS011;66072;50.238;19.228;2023-04-03T10:40:59;5.70;;;2.20;;
77117;SDS011;66072;50.238;19.228;2023-04-03T10:51:42;4.60;;;3.00;;
77117;SDS011;66072;50.238;19.228;2023-04-03T10:56:53;3.30;;;1.80;;
77117;SDS011;66072;50.238;19.228;2023-04-03T10:59:40;4.00;;;1.90;;
77117;SDS011;66072;50.238;19.228;2023-04-03T11:05:05;4.00;;;1.70;;
77117;SDS011;66072;50.238;19.228;2023-04-03T11:07:48;3.80;;;1.50;;
77117;SDS011;66072;50.238;19.228;2023-04-03T11:10:35;3.80;;;1.80;;
77117;SDS011;66072;50.238;19.228;2023-04-03T11:13:13;4.10;;;2.00;;
77117;SDS011;66072;50.238;19.228;2023-04-03T11:15:47;4.10;;;1.80;;
77117;SDS011;66072;50.238;19.228;2023-04-03T11:18:17;3.60;;;2.10;;
77117;SDS011;66072;50.238;19.228;2023-04-03T11:20:53;3.90;;;2.10;;
77117;SDS011;66072;50.238;19.228;2023-04-03T11:23:38;4.30;;;1.80;;
77117;SDS011;66072;50.238;19.228;2023-04-03T11:26:20;4.00;;;1.70;;
77117;SDS011;66072;50.238;19.228;2023-04-03T11:28:56;3.60;;;2.10;;
77117;SDS011;66072;50.238;19.228;2023-04-03T11:36:45;5.10;;;2.90;;
77117;SDS011;66072;50.238;19.228;2023-04-03T11:39:25;5.30;;;2.60;;
77117;SDS011;66072;50.238;19.228;2023-04-03T11:42:12;5.10;;;2.20;;
77117;SDS011;66072;50.238;19.228;2023-04-03T11:44:42;4.10;;;2.60;;
77117;SDS011;66072;50.238;19.228;2023-04-03T11:47:10;3.70;;;2.10;;
77117;SDS011;66072;50.238;19.228;2023-04-03T12:13:38;3.60;;;1.90;;
77117;SDS011;66072;50.238;19.228;2023-04-03T12:29:17;3.70;;;1.80;;
77117;SDS011;66072;50.238;19.228;2023-04-03T12:43:55;3.10;;;1.40;;
77117;SDS011;66072;50.238;19.228;2023-04-03T12:46:25;2.90;;;1.30;;
77117;SDS011;66072;50.238;19.228;2023-04-03T12:49:10;3.30;;;1.60;;
77117;SDS011;66072;50.238;19.228;2023-04-03T12:52:00;2.90;;;1.30;;
77117;SDS011;66072;50.238;19.228;2023-04-03T12:54:35;4.60;;;1.80;;
77117;SDS011;66072;50.238;19.228;2023-04-03T12:57:13;4.40;;;1.90;;
77117;SDS011;66072;50.238;19.228;2023-04-03T12:59:45;3.30;;;1.80;;
77117;SDS011;66072;50.238;19.228;2023-04-03T13:02:21;3.40;;;1.70;;
77117;SDS011;66072;50.238;19.228;2023-04-03T13:04:55;3.30;;;1.80;;
77117;SDS011;66072;50.238;19.228;2023-04-03T13:07:29;4.70;;;2.50;;
77117;SDS011;66072;50.238;19.228;2023-04-03T13:12:34;5.50;;;2.10;;
77117;SDS011;66072;50.238;19.228;2023-04-03T13:15:11;3.80;;;1.80;;
77117;SDS011;66072;50.238;19.228;2023-04-03T13:18:02;5.00;;;2.10;;
77117;SDS011;66072;50.238;19.228;2023-04-03T13:20:31;4.40;;;2.20;;
77117;SDS011;66072;50.238;19.228;2023-04-03T13:23:04;3.50;;;1.90;;
77117;SDS011;66072;50.238;19.228;2023-04-03T13:25:36;4.20;;;1.90;;
77117;SDS011;66072;50.238;19.228;2023-04-03T13:28:12;4.40;;;1.60;;
77117;SDS011;66072;50.238;19.228;2023-04-03T13:33:31;6.30;;;2.30;;
77117;SDS011;66072;50.238;19.228;2023-04-03T13:36:36;3.10;;;1.80;;
77117;SDS011;66072;50.238;19.228;2023-04-03T13:39:20;4.10;;;2.40;;
77117;SDS011;66072;50.238;19.228;2023-04-03T13:41:47;6.50;;;2.20;;
77117;SDS011;66072;50.238;19.228;2023-04-03T13:46:54;4.60;;;1.80;;
77117;SDS011;66072;50.238;19.228;2023-04-03T13:52:17;3.80;;;1.70;;
77117;SDS011;66072;50.238;19.228;2023-04-03T13:54:48;3.20;;;1.60;;
77117;SDS011;66072;50.238;19.228;2023-04-03T13:57:20;4.70;;;2.40;;
77117;SDS011;66072;50.238;19.228;2023-04-03T13:59:48;4.10;;;2.00;;
77117;SDS011;66072;50.238;19.228;2023-04-03T14:02:18;4.40;;;1.90;;
77117;SDS011;66072;50.238;19.228;2023-04-03T14:04:57;3.70;;;2.00;;
77117;SDS011;66072;50.238;19.228;2023-04-03T14:07:27;4.00;;;2.10;;
77117;SDS011;66072;50.238;19.228;2023-04-03T14:09:56;5.00;;;2.10;;
77117;SDS011;66072;50.238;19.228;2023-04-03T14:12:26;3.90;;;1.70;;
77117;SDS011;66072;50.238;19.228;2023-04-03T14:15:00;3.80;;;1.70;;
77117;SDS011;66072;50.238;19.228;2023-04-03T14:17:29;3.70;;;2.00;;
77117;SDS011;66072;50.238;19.228;2023-04-03T14:19:57;3.40;;;1.50;;
77117;SDS011;66072;50.238;19.228;2023-04-03T14:22:27;3.60;;;1.80;;
77117;SDS011;66072;50.238;19.228;2023-04-03T14:24:57;3.80;;;1.80;;
77117;SDS011;66072;50.238;19.228;2023-04-03T14:27:29;5.40;;;2.10;;
77117;SDS011;66072;50.238;19.228;2023-04-03T14:30:02;4.30;;;1.90;;
77117;SDS011;66072;50.238;19.228;2023-04-03T14:32:31;3.80;;;1.90;;
77117;SDS011;66072;50.238;19.228;2023-04-03T14:34:59;3.90;;;2.10;;
77117;SDS011;66072;50.238;19.228;2023-04-03T14:37:29;4.80;;;2.10;;
77117;SDS011;66072;50.238;19.228;2023-04-03T14:39:58;7.60;;;2.50;;
77117;SDS011;66072;50.238;19.228;2023-04-03T14:42:29;4.20;;;2.50;;
77117;SDS011;66072;50.238;19.228;2023-04-03T14:44:59;4.40;;;2.40;;
77117;SDS011;66072;50.238;19.228;2023-04-03T14:47:29;4.90;;;2.50;;
77117;SDS011;66072;50.238;19.228;2023-04-03T14:50:00;5.90;;;2.40;;
77117;SDS011;66072;50.238;19.228;2023-04-03T14:52:33;4.50;;;2.50;;
77117;SDS011;66072;50.238;19.228;2023-04-03T14:55:03;4.10;;;2.20;;
77117;SDS011;66072;50.238;19.228;2023-04-03T14:57:32;3.60;;;1.90;;
77117;SDS011;66072;50.238;19.228;2023-04-03T15:00:00;5.10;;;2.40;;
77117;SDS011;66072;50.238;19.228;2023-04-03T15:02:32;4.30;;;2.10;;
77117;SDS011;66072;50.238;19.228;2023-04-03T15:05:05;4.20;;;2.20;;
77117;SDS011;66072;50.238;19.228;2023-04-03T15:07:36;4.00;;;2.10;;
77117;SDS011;66072;50.238;19.228;2023-04-03T15:10:13;3.50;;;2.10;;
77117;SDS011;66072;50.238;19.228;2023-04-03T15:12:45;3.50;;;1.80;;
77117;SDS011;66072;50.238;19.228;2023-04-03T15:15:14;4.10;;;1.90;;
77117;SDS011;66072;50.238;19.228;2023-04-03T15:17:42;4.30;;;2.00;;
77117;SDS011;66072;50.238;19.228;2023-04-03T15:20:15;4.10;;;2.40;;
77117;SDS011;66072;50.238;19.228;2023-04-03T15:22:45;3.50;;;1.80;;
77117;SDS011;66072;50.238;19.228;2023-04-03T15:25:13;3.80;;;2.10;;
77117;SDS011;66072;50.238;19.228;2023-04-03T15:27:40;4.70;;;2.40;;
77117;SDS011;66072;50.238;19.228;2023-04-03T15:30:13;4.60;;;2.10;;
77117;SDS011;66072;50.238;19.228;2023-04-03T15:32:42;4.10;;;1.80;;
77117;SDS011;66072;50.238;19.228;2023-04-03T15:35:10;4.40;;;2.00;;
77117;SDS011;66072;50.238;19.228;2023-04-03T15:37:38;4.30;;;2.10;;
77117;SDS011;66072;50.238;19.228;2023-04-03T15:40:06;4.90;;;3.00;;
77117;SDS011;66072;50.238;19.228;2023-04-03T15:42:35;4.20;;;2.20;;
77117;SDS011;66072;50.238;19.228;2023-04-03T15:45:02;4.20;;;2.30;;
77117;SDS011;66072;50.238;19.228;2023-04-03T15:47:30;4.90;;;2.40;;
77117;SDS011;66072;50.238;19.228;2023-04-03T15:49:59;4.90;;;2.00;;
77117;SDS011;66072;50.238;19.228;2023-04-03T15:52:26;4.10;;;2.20;;
77117;SDS011;66072;50.238;19.228;2023-04-03T15:54:54;4.40;;;2.00;;
77117;SDS011;66072;50.238;19.228;2023-04-03T15:57:21;3.80;;;2.20;;
77117;SDS011;66072;50.238;19.228;2023-04-03T15:59:49;4.20;;;1.90;;
77117;SDS011;66072;50.238;19.228;2023-04-03T16:02:17;4.30;;;1.80;;
77117;SDS011;66072;50.238;19.228;2023-04-03T16:04:44;3.40;;;1.70;;
77117;SDS011;66072;50.238;19.228;2023-04-03T16:07:12;3.10;;;2.10;;
77117;SDS011;66072;50.238;19.228;2023-04-03T16:09:40;4.20;;;1.80;;
77117;SDS011;66072;50.238;19.228;2023-04-03T16:12:07;3.60;;;1.90;;
77117;SDS011;66072;50.238;19.228;2023-04-03T16:14:35;5.00;;;2.20;;
77117;SDS011;66072;50.238;19.228;2023-04-03T16:17:03;4.60;;;2.00;;
77117;SDS011;66072;50.238;19.228;2023-04-03T16:19:30;6.60;;;2.80;;
77117;SDS011;66072;50.238;19.228;2023-04-03T16:21:58;6.80;;;2.90;;
77117;SDS011;66072;50.238;19.228;2023-04-03T16:24:26;4.90;;;2.90;;
77117;SDS011;66072;50.238;19.228;2023-04-03T16:26:54;4.80;;;2.50;;
77117;SDS011;66072;50.238;19.228;2023-04-03T16:29:22;4.70;;;2.60;;
77117;SDS011;66072;50.238;19.228;2023-04-03T16:31:49;5.20;;;2.90;;
77117;SDS011;66072;50.238;19.228;2023-04-03T16:34:17;5.60;;;2.60;;
77117;SDS011;66072;50.238;19.228;2023-04-03T16:36:45;4.70;;;2.20;;
77117;SDS011;66072;50.238;19.228;2023-04-03T16:39:12;4.90;;;2.70;;
77117;SDS011;66072;50.238;19.228;2023-04-03T16:41:40;4.50;;;2.30;;
77117;SDS011;66072;50.238;19.228;2023-04-03T16:44:08;4.60;;;2.70;;
77117;SDS011;66072;50.238;19.228;2023-04-03T16:46:36;4.10;;;2.10;;
77117;SDS011;66072;50.238;19.228;2023-04-03T16:49:04;5.50;;;2.50;;
77117;SDS011;66072;50.238;19.228;2023-04-03T16:51:32;5.00;;;2.80;;
77117;SDS011;66072;50.238;19.228;2023-04-03T16:53:59;4.80;;;2.50;;